sensor_id;sensor_type;location;lat;lon;timestamp;pressure;altitude;pressure_sealevel;temperature;humidity
9899;BME280;4988;49.238;6.698;2023-04-07T00:01:18;99104.31;;;7.91;100.00
9899;BME280;4988;49.238;6.698;2023-04-07T00:03:43;99097.25;;;7.91;100.00
9899;BME280;4988;49.238;6.698;2023-04-07T00:06:09;99101.50;;;7.95;100.00
9899;BME280;4988;49.238;6.698;2023-04-07T00:08:34;99098.97;;;7.92;100.00
9899;BME280;4988;49.238;6.698;2023-04-07T00:11:00;99105.28;;;7.88;100.00
9899;BME280;4988;49.238;6.698;2023-04-07T00:13:25;99103.53;;;7.87;100.00
9899;BME280;4988;49.238;6.698;2023-04-07T00:15:51;99094.75;;;7.86;100.00
9899;BME280;4988;49.238;6.698;2023-04-07T00:18:16;99099.22;;;7.84;100.00
9899;BME280;4988;49.238;6.698;2023-04-07T00:20:41;99092.16;;;7.85;100.00
9899;BME280;4988;49.238;6.698;2023-04-07T00:23:07;99094.06;;;7.81;100.00
9899;BME280;4988;49.238;6.698;2023-04-07T00:25:32;99079.88;;;7.82;100.00
9899;BME280;4988;49.238;6.698;2023-04-07T00:27:57;99082.78;;;7.75;100.00
9899;BME280;4988;49.238;6.698;2023-04-07T00:30:23;99078.63;;;7.67;100.00
9899;BME280;4988;49.238;6.698;2023-04-07T00:32:48;99082.44;;;7.60;100.00
9899;BME280;4988;49.238;6.698;2023-04-07T00:35:15;99076.09;;;7.64;100.00
9899;BME280;4988;49.238;6.698;2023-04-07T00:37:41;99072.06;;;7.54;100.00
9899;BME280;4988;49.238;6.698;2023-04-07T00:40:06;99077.59;;;7.46;100.00
9899;BME280;4988;49.238;6.698;2023-04-07T00:42:32;99079.47;;;7.43;100.00
9899;BME280;4988;49.238;6.698;2023-04-07T00:44:57;99077.88;;;7.38;100.00
9899;BME280;4988;49.238;6.698;2023-04-07T00:47:23;99073.38;;;7.40;100.00
9899;BME280;4988;49.238;6.698;2023-04-07T00:49:48;99069.22;;;7.33;100.00
9899;BME280;4988;49.238;6.698;2023-04-07T00:52:14;99073.91;;;7.25;100.00
9899;BME280;4988;49.238;6.698;2023-04-07T00:54:41;99063.50;;;7.19;100.00
9899;BME280;4988;49.238;6.698;2023-04-07T00:57:06;99062.81;;;7.14;100.00
9899;BME280;4988;49.238;6.698;2023-04-07T00:59:31;99054.88;;;7.14;100.00
9899;BME280;4988;49.238;6.698;2023-04-07T01:02:12;99064.84;;;7.05;100.00
9899;BME280;4988;49.238;6.698;2023-04-07T01:05:11;99059.94;;;6.93;100.00
9899;BME280;4988;49.238;6.698;2023-04-07T01:10:47;99059.03;;;6.94;100.00
9899;BME280;4988;49.238;6.698;2023-04-07T01:13:33;99051.91;;;6.96;100.00
9899;BME280;4988;49.238;6.698;2023-04-07T01:16:04;99052.84;;;6.95;100.00
9899;BME280;4988;49.238;6.698;2023-04-07T01:18:34;99049.69;;;6.82;100.00
9899;BME280;4988;49.238;6.698;2023-04-07T01:21:03;99052.31;;;6.84;100.00
9899;BME280;4988;49.238;6.698;2023-04-07T01:23:51;99048.94;;;6.79;100.00
9899;BME280;4988;49.238;6.698;2023-04-07T01:26:25;99054.19;;;6.80;100.00
9899;BME280;4988;49.238;6.698;2023-04-07T01:29:06;99052.72;;;6.71;100.00
9899;BME280;4988;49.238;6.698;2023-04-07T01:31:36;99054.22;;;6.79;100.00
9899;BME280;4988;49.238;6.698;2023-04-07T01:34:03;99058.91;;;6.70;100.00
9899;BME280;4988;49.238;6.698;2023-04-07T01:36:30;99055.69;;;6.60;100.00
9899;BME280;4988;49.238;6.698;2023-04-07T01:38:58;99057.66;;;6.54;100.00
9899;BME280;4988;49.238;6.698;2023-04-07T01:41:24;99063.31;;;6.41;100.00
9899;BME280;4988;49.238;6.698;2023-04-07T01:43:52;99053.56;;;6.43;100.00
9899;BME280;4988;49.238;6.698;2023-04-07T01:46:19;99050.28;;;6.35;100.00
9899;BME280;4988;49.238;6.698;2023-04-07T01:48:46;99044.41;;;6.25;100.00
9899;BME280;4988;49.238;6.698;2023-04-07T01:51:12;99035.63;;;6.25;100.00
9899;BME280;4988;49.238;6.698;2023-04-07T01:53:42;99037.44;;;6.23;100.00
9899;BME280;4988;49.238;6.698;2023-04-07T01:56:07;99030.41;;;6.22;100.00
9899;BME280;4988;49.238;6.698;2023-04-07T01:58:33;99034.31;;;6.10;100.00
9899;BME280;4988;49.238;6.698;2023-04-07T02:00:58;99029.94;;;6.09;100.00
9899;BME280;4988;49.238;6.698;2023-04-07T02:03:30;99029.88;;;6.10;100.00
9899;BME280;4988;49.238;6.698;2023-04-07T02:06:03;99033.44;;;6.09;100.00
9899;BME280;4988;49.238;6.698;2023-04-07T02:08:31;99023.75;;;6.08;100.00
9899;BME280;4988;49.238;6.698;2023-04-07T02:10:58;99021.41;;;5.99;100.00
9899;BME280;4988;49.238;6.698;2023-04-07T02:13:26;99018.03;;;5.92;100.00
9899;BME280;4988;49.238;6.698;2023-04-07T02:15:53;99020.84;;;5.86;100.00
9899;BME280;4988;49.238;6.698;2023-04-07T02:18:20;99015.84;;;5.77;100.00
9899;BME280;4988;49.238;6.698;2023-04-07T02:20:46;99013.34;;;5.72;100.00
9899;BME280;4988;49.238;6.698;2023-04-07T02:23:12;99018.88;;;5.63;100.00
9899;BME280;4988;49.238;6.698;2023-04-07T02:25:38;99020.75;;;5.58;100.00
9899;BME280;4988;49.238;6.698;2023-04-07T02:28:04;99014.59;;;5.59;100.00
9899;BME280;4988;49.238;6.698;2023-04-07T02:30:30;99020.09;;;5.51;100.00
9899;BME280;4988;49.238;6.698;2023-04-07T02:32:56;99017.91;;;5.34;100.00
9899;BME280;4988;49.238;6.698;2023-04-07T02:35:21;99021.53;;;5.30;100.00
9899;BME280;4988;49.238;6.698;2023-04-07T02:37:47;99012.72;;;5.29;100.00
9899;BME280;4988;49.238;6.698;2023-04-07T02:40:13;99016.75;;;5.11;100.00
9899;BME280;4988;49.238;6.698;2023-04-07T02:42:39;99013.81;;;4.88;100.00
9899;BME280;4988;49.238;6.698;2023-04-07T02:45:06;99013.34;;;4.70;100.00
9899;BME280;4988;49.238;6.698;2023-04-07T02:47:32;99025.78;;;4.65;100.00
9899;BME280;4988;49.238;6.698;2023-04-07T02:49:57;99034.59;;;4.64;100.00
9899;BME280;4988;49.238;6.698;2023-04-07T02:52:23;99015.13;;;4.70;100.00
9899;BME280;4988;49.238;6.698;2023-04-07T02:54:48;99014.91;;;4.79;100.00
9899;BME280;4988;49.238;6.698;2023-04-07T02:57:14;99018.44;;;4.78;100.00
9899;BME280;4988;49.238;6.698;2023-04-07T02:59:39;99024.44;;;4.85;100.00
9899;BME280;4988;49.238;6.698;2023-04-07T03:02:05;99016.59;;;4.81;100.00
9899;BME280;4988;49.238;6.698;2023-04-07T03:04:30;99011.31;;;4.81;100.00
9899;BME280;4988;49.238;6.698;2023-04-07T03:06:56;99011.22;;;4.86;100.00
9899;BME280;4988;49.238;6.698;2023-04-07T03:09:22;99015.59;;;4.87;100.00
9899;BME280;4988;49.238;6.698;2023-04-07T03:11:48;99029.63;;;4.88;100.00
9899;BME280;4988;49.238;6.698;2023-04-07T03:14:13;99016.31;;;4.92;100.00
9899;BME280;4988;49.238;6.698;2023-04-07T03:16:38;99023.97;;;5.03;100.00
9899;BME280;4988;49.238;6.698;2023-04-07T03:19:04;99031.06;;;5.01;100.00
9899;BME280;4988;49.238;6.698;2023-04-07T03:21:30;99026.94;;;4.91;100.00
9899;BME280;4988;49.238;6.698;2023-04-07T03:23:56;99025.78;;;5.01;100.00
9899;BME280;4988;49.238;6.698;2023-04-07T03:26:21;99022.19;;;5.04;100.00
9899;BME280;4988;49.238;6.698;2023-04-07T03:28:46;99026.47;;;5.09;100.00
9899;BME280;4988;49.238;6.698;2023-04-07T03:31:12;99016.59;;;5.18;100.00
9899;BME280;4988;49.238;6.698;2023-04-07T03:33:37;99012.09;;;5.20;100.00
9899;BME280;4988;49.238;6.698;2023-04-07T03:36:03;99009.34;;;5.24;100.00
9899;BME280;4988;49.238;6.698;2023-04-07T03:38:28;99019.00;;;5.25;100.00
9899;BME280;4988;49.238;6.698;2023-04-07T03:40:54;99017.94;;;5.32;100.00
9899;BME280;4988;49.238;6.698;2023-04-07T03:43:19;99024.97;;;5.34;100.00
9899;BME280;4988;49.238;6.698;2023-04-07T03:45:45;99030.06;;;5.40;100.00
9899;BME280;4988;49.238;6.698;2023-04-07T03:48:11;99026.53;;;5.41;100.00
9899;BME280;4988;49.238;6.698;2023-04-07T03:50:37;99029.19;;;5.39;100.00
9899;BME280;4988;49.238;6.698;2023-04-07T03:53:03;99024.81;;;5.38;100.00
9899;BME280;4988;49.238;6.698;2023-04-07T03:55:28;99022.38;;;5.30;100.00
9899;BME280;4988;49.238;6.698;2023-04-07T03:57:54;99024.00;;;5.36;100.00
9899;BME280;4988;49.238;6.698;2023-04-07T04:00:20;99027.72;;;5.29;100.00
9899;BME280;4988;49.238;6.698;2023-04-07T04:02:45;99018.19;;;5.23;100.00
9899;BME280;4988;49.238;6.698;2023-04-07T04:05:10;99025.25;;;5.23;100.00
9899;BME280;4988;49.238;6.698;2023-04-07T04:07:36;99020.59;;;5.32;100.00
9899;BME280;4988;49.238;6.698;2023-04-07T04:10:01;99026.88;;;5.28;100.00
9899;BME280;4988;49.238;6.698;2023-04-07T04:12:26;99026.19;;;5.20;100.00
9899;BME280;4988;49.238;6.698;2023-04-07T04:14:52;99026.13;;;5.22;100.00
9899;BME280;4988;49.238;6.698;2023-04-07T04:17:18;99015.69;;;5.17;100.00
9899;BME280;4988;49.238;6.698;2023-04-07T04:19:43;99018.38;;;5.15;100.00
9899;BME280;4988;49.238;6.698;2023-04-07T04:22:08;99012.28;;;5.13;100.00
9899;BME280;4988;49.238;6.698;2023-04-07T04:24:34;99012.56;;;5.03;100.00
9899;BME280;4988;49.238;6.698;2023-04-07T04:26:59;99013.38;;;5.05;100.00
9899;BME280;4988;49.238;6.698;2023-04-07T04:29:26;99016.19;;;4.98;100.00
9899;BME280;4988;49.238;6.698;2023-04-07T04:31:51;99019.72;;;4.97;100.00
9899;BME280;4988;49.238;6.698;2023-04-07T04:34:16;99018.97;;;4.92;100.00
9899;BME280;4988;49.238;6.698;2023-04-07T04:36:42;99018.22;;;4.87;100.00
9899;BME280;4988;49.238;6.698;2023-04-07T04:39:07;99020.03;;;4.85;100.00
9899;BME280;4988;49.238;6.698;2023-04-07T04:41:33;99018.31;;;4.82;100.00
9899;BME280;4988;49.238;6.698;2023-04-07T04:43:58;99026.19;;;4.86;100.00
9899;BME280;4988;49.238;6.698;2023-04-07T04:46:24;99022.63;;;4.87;100.00
9899;BME280;4988;49.238;6.698;2023-04-07T04:48:49;99018.38;;;4.81;100.00
9899;BME280;4988;49.238;6.698;2023-04-07T04:51:16;99017.47;;;4.82;100.00
9899;BME280;4988;49.238;6.698;2023-04-07T04:53:42;99019.22;;;4.81;100.00
9899;BME280;4988;49.238;6.698;2023-04-07T04:56:07;99016.63;;;4.80;100.00
9899;BME280;4988;49.238;6.698;2023-04-07T04:58:33;99022.84;;;4.77;100.00
9899;BME280;4988;49.238;6.698;2023-04-07T05:00:59;99023.72;;;4.78;100.00
9899;BME280;4988;49.238;6.698;2023-04-07T05:03:26;99021.13;;;4.76;100.00
9899;BME280;4988;49.238;6.698;2023-04-07T05:05:52;99026.19;;;4.86;100.00
9899;BME280;4988;49.238;6.698;2023-04-07T05:08:17;99022.69;;;4.83;100.00
9899;BME280;4988;49.238;6.698;2023-04-07T05:10:42;99027.91;;;4.87;100.00
9899;BME280;4988;49.238;6.698;2023-04-07T05:13:08;99025.28;;;4.87;100.00
9899;BME280;4988;49.238;6.698;2023-04-07T05:15:33;99028.13;;;4.77;100.00
9899;BME280;4988;49.238;6.698;2023-04-07T05:17:59;99027.28;;;4.75;100.00
9899;BME280;4988;49.238;6.698;2023-04-07T05:20:24;99018.59;;;4.72;100.00
9899;BME280;4988;49.238;6.698;2023-04-07T05:22:49;99014.38;;;4.64;100.00
9899;BME280;4988;49.238;6.698;2023-04-07T05:25:15;99014.19;;;4.72;100.00
9899;BME280;4988;49.238;6.698;2023-04-07T05:27:40;99006.97;;;4.80;100.00
9899;BME280;4988;49.238;6.698;2023-04-07T05:30:06;99004.25;;;4.83;100.00
9899;BME280;4988;49.238;6.698;2023-04-07T05:32:32;99000.91;;;4.75;100.00
9899;BME280;4988;49.238;6.698;2023-04-07T05:34:57;99002.66;;;4.76;100.00
9899;BME280;4988;49.238;6.698;2023-04-07T05:37:22;99004.88;;;4.57;100.00
9899;BME280;4988;49.238;6.698;2023-04-07T05:39:48;99005.19;;;4.43;100.00
9899;BME280;4988;49.238;6.698;2023-04-07T05:42:13;99002.78;;;4.34;100.00
9899;BME280;4988;49.238;6.698;2023-04-07T05:44:38;99002.03;;;4.29;100.00
9899;BME280;4988;49.238;6.698;2023-04-07T05:47:04;98999.31;;;4.32;100.00
9899;BME280;4988;49.238;6.698;2023-04-07T05:49:33;99001.72;;;4.43;100.00
9899;BME280;4988;49.238;6.698;2023-04-07T05:51:59;99003.22;;;4.53;100.00
9899;BME280;4988;49.238;6.698;2023-04-07T05:54:24;99000.31;;;4.64;100.00
9899;BME280;4988;49.238;6.698;2023-04-07T05:56:49;99013.00;;;4.86;100.00
9899;BME280;4988;49.238;6.698;2023-04-07T05:59:15;99000.19;;;5.05;100.00
9899;BME280;4988;49.238;6.698;2023-04-07T06:01:41;99003.91;;;5.30;100.00
9899;BME280;4988;49.238;6.698;2023-04-07T06:04:06;98998.19;;;5.47;100.00
9899;BME280;4988;49.238;6.698;2023-04-07T06:06:32;99001.03;;;5.71;100.00
9899;BME280;4988;49.238;6.698;2023-04-07T06:08:57;98997.13;;;5.85;100.00
9899;BME280;4988;49.238;6.698;2023-04-07T06:11:22;99005.78;;;5.90;100.00
9899;BME280;4988;49.238;6.698;2023-04-07T06:13:48;99009.19;;;5.95;100.00
9899;BME280;4988;49.238;6.698;2023-04-07T06:16:13;99015.09;;;6.05;100.00
9899;BME280;4988;49.238;6.698;2023-04-07T06:18:39;99013.84;;;6.17;100.00
9899;BME280;4988;49.238;6.698;2023-04-07T06:21:04;99019.66;;;6.28;100.00
9899;BME280;4988;49.238;6.698;2023-04-07T06:23:30;99017.47;;;6.42;100.00
9899;BME280;4988;49.238;6.698;2023-04-07T06:25:56;99017.97;;;6.54;100.00
9899;BME280;4988;49.238;6.698;2023-04-07T06:28:21;99021.44;;;6.56;100.00
9899;BME280;4988;49.238;6.698;2023-04-07T06:30:46;99020.53;;;6.57;100.00
9899;BME280;4988;49.238;6.698;2023-04-07T06:33:12;99026.47;;;6.65;100.00
9899;BME280;4988;49.238;6.698;2023-04-07T06:35:39;99032.41;;;6.72;100.00
9899;BME280;4988;49.238;6.698;2023-04-07T06:38:05;99038.34;;;6.79;100.00
9899;BME280;4988;49.238;6.698;2023-04-07T06:40:31;99038.91;;;6.90;100.00
9899;BME280;4988;49.238;6.698;2023-04-07T06:42:56;99038.06;;;6.88;100.00
9899;BME280;4988;49.238;6.698;2023-04-07T06:45:22;99047.94;;;6.83;100.00
9899;BME280;4988;49.238;6.698;2023-04-07T06:47:47;99050.59;;;6.83;100.00
9899;BME280;4988;49.238;6.698;2023-04-07T06:50:13;99055.75;;;6.86;100.00
9899;BME280;4988;49.238;6.698;2023-04-07T06:52:38;99049.50;;;6.88;100.00
9899;BME280;4988;49.238;6.698;2023-04-07T06:55:04;99056.44;;;6.92;100.00
9899;BME280;4988;49.238;6.698;2023-04-07T06:57:29;99050.94;;;6.99;100.00
9899;BME280;4988;49.238;6.698;2023-04-07T06:59:54;99055.47;;;6.95;100.00
9899;BME280;4988;49.238;6.698;2023-04-07T07:02:20;99055.28;;;7.01;100.00
9899;BME280;4988;49.238;6.698;2023-04-07T07:04:45;99055.06;;;7.07;100.00
9899;BME280;4988;49.238;6.698;2023-04-07T07:07:10;99061.97;;;7.12;100.00
9899;BME280;4988;49.238;6.698;2023-04-07T07:09:36;99062.69;;;7.17;100.00
9899;BME280;4988;49.238;6.698;2023-04-07T07:12:01;99064.34;;;7.21;100.00
9899;BME280;4988;49.238;6.698;2023-04-07T07:14:27;99068.50;;;7.28;100.00
9899;BME280;4988;49.238;6.698;2023-04-07T07:16:52;99070.19;;;7.31;100.00
9899;BME280;4988;49.238;6.698;2023-04-07T07:19:18;99069.97;;;7.37;100.00
9899;BME280;4988;49.238;6.698;2023-04-07T07:21:43;99067.19;;;7.42;100.00
9899;BME280;4988;49.238;6.698;2023-04-07T07:24:08;99077.59;;;7.46;100.00
9899;BME280;4988;49.238;6.698;2023-04-07T07:26:34;99066.00;;;7.50;100.00
9899;BME280;4988;49.238;6.698;2023-04-07T07:28:59;99067.53;;;7.56;100.00
9899;BME280;4988;49.238;6.698;2023-04-07T07:31:24;99071.00;;;7.58;100.00
9899;BME280;4988;49.238;6.698;2023-04-07T07:33:50;99061.94;;;7.65;100.00
9899;BME280;4988;49.238;6.698;2023-04-07T07:36:16;99062.69;;;7.69;100.00
9899;BME280;4988;49.238;6.698;2023-04-07T07:38:41;99068.63;;;7.76;100.00
9899;BME280;4988;49.238;6.698;2023-04-07T07:41:07;99068.53;;;7.79;100.00
9899;BME280;4988;49.238;6.698;2023-04-07T07:43:32;99071.00;;;7.83;100.00
9899;BME280;4988;49.238;6.698;2023-04-07T07:45:58;99074.19;;;7.93;100.00
9899;BME280;4988;49.238;6.698;2023-04-07T07:48:23;99076.59;;;7.99;100.00
9899;BME280;4988;49.238;6.698;2023-04-07T07:50:49;99076.38;;;8.05;100.00
9899;BME280;4988;49.238;6.698;2023-04-07T07:53:15;99083.63;;;8.00;100.00
9899;BME280;4988;49.238;6.698;2023-04-07T07:55:40;99083.75;;;7.97;100.00
9899;BME280;4988;49.238;6.698;2023-04-07T07:58:06;99086.28;;;8.00;100.00
9899;BME280;4988;49.238;6.698;2023-04-07T08:00:31;99087.94;;;8.04;100.00
9899;BME280;4988;49.238;6.698;2023-04-07T08:02:56;99090.13;;;8.17;100.00
9899;BME280;4988;49.238;6.698;2023-04-07T08:05:23;99087.78;;;8.31;100.00
9899;BME280;4988;49.238;6.698;2023-04-07T08:07:48;99098.59;;;8.27;100.00
9899;BME280;4988;49.238;6.698;2023-04-07T08:10:14;99095.00;;;8.28;100.00
9899;BME280;4988;49.238;6.698;2023-04-07T08:12:39;99091.25;;;8.33;100.00
9899;BME280;4988;49.238;6.698;2023-04-07T08:15:05;99095.47;;;8.39;100.00
9899;BME280;4988;49.238;6.698;2023-04-07T08:17:34;99097.00;;;8.46;100.00
9899;BME280;4988;49.238;6.698;2023-04-07T08:19:59;99095.91;;;8.52;100.00
9899;BME280;4988;49.238;6.698;2023-04-07T08:22:25;99098.22;;;8.61;100.00
9899;BME280;4988;49.238;6.698;2023-04-07T08:24:50;99105.00;;;8.68;100.00
9899;BME280;4988;49.238;6.698;2023-04-07T08:27:15;99109.03;;;8.79;100.00
9899;BME280;4988;49.238;6.698;2023-04-07T08:29:41;99110.63;;;8.83;100.00
9899;BME280;4988;49.238;6.698;2023-04-07T08:32:06;99112.78;;;8.95;100.00
9899;BME280;4988;49.238;6.698;2023-04-07T08:34:31;99112.75;;;8.97;100.00
9899;BME280;4988;49.238;6.698;2023-04-07T08:36:57;99117.06;;;8.99;100.00
9899;BME280;4988;49.238;6.698;2023-04-07T08:39:22;99117.06;;;8.99;100.00
9899;BME280;4988;49.238;6.698;2023-04-07T08:41:50;99125.44;;;8.89;100.00
9899;BME280;4988;49.238;6.698;2023-04-07T08:44:15;99127.28;;;8.87;100.00
9899;BME280;4988;49.238;6.698;2023-04-07T08:46:42;99128.00;;;8.68;100.00
9899;BME280;4988;49.238;6.698;2023-04-07T08:49:09;99130.34;;;8.76;100.00
9899;BME280;4988;49.238;6.698;2023-04-07T08:51:36;99133.38;;;8.66;100.00
9899;BME280;4988;49.238;6.698;2023-04-07T08:54:11;99134.38;;;8.64;100.00
9899;BME280;4988;49.238;6.698;2023-04-07T08:56:38;99136.03;;;8.66;100.00
9899;BME280;4988;49.238;6.698;2023-04-07T08:59:07;99136.78;;;8.70;100.00
9899;BME280;4988;49.238;6.698;2023-04-07T09:01:34;99140.91;;;8.55;100.00
9899;BME280;4988;49.238;6.698;2023-04-07T09:04:01;99142.25;;;8.42;100.00
9899;BME280;4988;49.238;6.698;2023-04-07T09:06:29;99144.97;;;8.40;100.00
9899;BME280;4988;49.238;6.698;2023-04-07T09:08:56;99140.16;;;8.51;100.00
9899;BME280;4988;49.238;6.698;2023-04-07T09:11:22;99142.25;;;8.65;100.00
9899;BME280;4988;49.238;6.698;2023-04-07T09:13:48;99149.69;;;8.79;100.00
9899;BME280;4988;49.238;6.698;2023-04-07T09:16:13;99145.84;;;8.88;100.00
9899;BME280;4988;49.238;6.698;2023-04-07T09:18:39;99146.28;;;8.99;100.00
9899;BME280;4988;49.238;6.698;2023-04-07T09:21:05;99151.34;;;9.06;100.00
9899;BME280;4988;49.238;6.698;2023-04-07T09:23:39;99148.69;;;9.06;100.00
9899;BME280;4988;49.238;6.698;2023-04-07T09:26:31;99153.75;;;9.12;100.00
9899;BME280;4988;49.238;6.698;2023-04-07T09:28:59;99160.56;;;8.95;100.00
9899;BME280;4988;49.238;6.698;2023-04-07T09:31:44;99159.38;;;8.80;100.00
9899;BME280;4988;49.238;6.698;2023-04-07T09:34:30;99157.78;;;8.76;100.00
9899;BME280;4988;49.238;6.698;2023-04-07T09:36:56;99153.47;;;8.74;100.00
9899;BME280;4988;49.238;6.698;2023-04-07T09:39:22;99150.22;;;8.65;100.00
9899;BME280;4988;49.238;6.698;2023-04-07T09:41:48;99153.94;;;8.61;100.00
9899;BME280;4988;49.238;6.698;2023-04-07T09:44:13;99155.00;;;8.56;100.00
9899;BME280;4988;49.238;6.698;2023-04-07T09:46:55;99157.25;;;8.43;100.00
9899;BME280;4988;49.238;6.698;2023-04-07T09:49:25;99160.22;;;8.33;100.00
9899;BME280;4988;49.238;6.698;2023-04-07T09:51:54;99156.72;;;8.33;100.00
9899;BME280;4988;49.238;6.698;2023-04-07T09:54:37;99159.38;;;8.33;100.00
9899;BME280;4988;49.238;6.698;2023-04-07T09:57:04;99164.31;;;8.42;100.00
9899;BME280;4988;49.238;6.698;2023-04-07T09:59:31;99166.06;;;8.43;100.00
9899;BME280;4988;49.238;6.698;2023-04-07T10:01:57;99162.81;;;8.35;100.00
9899;BME280;4988;49.238;6.698;2023-04-07T10:04:23;99168.84;;;8.40;100.00
9899;BME280;4988;49.238;6.698;2023-04-07T10:06:51;99171.00;;;8.54;100.00
9899;BME280;4988;49.238;6.698;2023-04-07T10:09:17;99172.06;;;8.50;100.00
9899;BME280;4988;49.238;6.698;2023-04-07T10:11:43;99165.75;;;8.52;100.00
9899;BME280;4988;49.238;6.698;2023-04-07T10:14:09;99166.75;;;8.50;100.00
9899;BME280;4988;49.238;6.698;2023-04-07T10:16:38;99167.38;;;8.57;100.00
9899;BME280;4988;49.238;6.698;2023-04-07T10:19:05;99162.50;;;8.68;100.00
9899;BME280;4988;49.238;6.698;2023-04-07T10:21:33;99165.44;;;8.84;100.00
9899;BME280;4988;49.238;6.698;2023-04-07T10:26:58;99164.19;;;8.94;100.00
9899;BME280;4988;49.238;6.698;2023-04-07T10:29:28;99169.84;;;9.07;100.00
9899;BME280;4988;49.238;6.698;2023-04-07T10:31:58;99168.44;;;9.21;100.00
9899;BME280;4988;49.238;6.698;2023-04-07T10:37:14;99174.00;;;9.14;100.00
9899;BME280;4988;49.238;6.698;2023-04-07T10:39:42;99173.88;;;9.17;100.00
9899;BME280;4988;49.238;6.698;2023-04-07T10:42:48;99179.00;;;9.00;100.00
9899;BME280;4988;49.238;6.698;2023-04-07T10:45:13;99171.41;;;9.13;100.00
9899;BME280;4988;49.238;6.698;2023-04-07T10:50:22;99182.81;;;9.37;100.00
9899;BME280;4988;49.238;6.698;2023-04-07T10:53:01;99176.00;;;9.52;100.00
9899;BME280;4988;49.238;6.698;2023-04-07T10:55:33;99172.88;;;9.64;100.00
9899;BME280;4988;49.238;6.698;2023-04-07T11:03:23;99177.63;;;9.99;95.19
9899;BME280;4988;49.238;6.698;2023-04-07T11:05:49;99181.00;;;9.82;96.28
9899;BME280;4988;49.238;6.698;2023-04-07T11:08:14;99179.47;;;9.97;96.98
9899;BME280;4988;49.238;6.698;2023-04-07T11:10:46;99181.78;;;10.05;96.02
9899;BME280;4988;49.238;6.698;2023-04-07T11:13:11;99179.66;;;9.92;94.39
9899;BME280;4988;49.238;6.698;2023-04-07T11:15:37;99176.41;;;9.86;95.38
9899;BME280;4988;49.238;6.698;2023-04-07T11:18:14;99172.34;;;9.97;96.67
9899;BME280;4988;49.238;6.698;2023-04-07T11:20:43;99185.38;;;10.04;93.37
9899;BME280;4988;49.238;6.698;2023-04-07T11:23:09;99183.88;;;9.98;93.70
9899;BME280;4988;49.238;6.698;2023-04-07T11:25:35;99179.94;;;10.07;91.11
9899;BME280;4988;49.238;6.698;2023-04-07T11:28:03;99185.72;;;10.17;88.13
9899;BME280;4988;49.238;6.698;2023-04-07T11:30:28;99176.41;;;10.27;87.20
9899;BME280;4988;49.238;6.698;2023-04-07T11:32:55;99175.28;;;10.33;86.87
9899;BME280;4988;49.238;6.698;2023-04-07T11:35:21;99177.00;;;10.34;89.67
9899;BME280;4988;49.238;6.698;2023-04-07T11:37:47;99175.13;;;10.36;89.01
9899;BME280;4988;49.238;6.698;2023-04-07T11:40:12;99174.34;;;10.34;91.14
9899;BME280;4988;49.238;6.698;2023-04-07T11:42:41;99178.63;;;10.38;92.07
9899;BME280;4988;49.238;6.698;2023-04-07T11:45:17;99182.38;;;10.53;88.01
9899;BME280;4988;49.238;6.698;2023-04-07T11:47:43;99182.03;;;10.60;87.12
9899;BME280;4988;49.238;6.698;2023-04-07T11:50:09;99185.09;;;10.72;85.18
9899;BME280;4988;49.238;6.698;2023-04-07T11:55:16;99179.84;;;10.89;84.21
9899;BME280;4988;49.238;6.698;2023-04-07T11:57:42;99178.09;;;10.88;83.36
9899;BME280;4988;49.238;6.698;2023-04-07T12:00:09;99180.41;;;10.96;85.36
9899;BME280;4988;49.238;6.698;2023-04-07T12:02:35;99181.47;;;11.11;84.56
9899;BME280;4988;49.238;6.698;2023-04-07T12:05:01;99184.94;;;11.13;85.63
9899;BME280;4988;49.238;6.698;2023-04-07T12:07:27;99177.00;;;10.92;85.10
9899;BME280;4988;49.238;6.698;2023-04-07T12:09:53;99170.63;;;10.97;85.44
9899;BME280;4988;49.238;6.698;2023-04-07T12:12:26;99176.09;;;11.13;86.20
9899;BME280;4988;49.238;6.698;2023-04-07T12:14:53;99171.94;;;11.24;82.35
9899;BME280;4988;49.238;6.698;2023-04-07T12:17:22;99171.66;;;11.31;84.50
9899;BME280;4988;49.238;6.698;2023-04-07T12:19:48;99166.81;;;11.39;86.34
9899;BME280;4988;49.238;6.698;2023-04-07T12:22:13;99168.84;;;11.34;87.75
9899;BME280;4988;49.238;6.698;2023-04-07T12:24:39;99172.00;;;11.42;87.98
9899;BME280;4988;49.238;6.698;2023-04-07T12:27:04;99170.13;;;11.44;86.49
9899;BME280;4988;49.238;6.698;2023-04-07T12:29:30;99173.50;;;11.48;84.60
9899;BME280;4988;49.238;6.698;2023-04-07T12:31:55;99162.47;;;11.55;84.02
9899;BME280;4988;49.238;6.698;2023-04-07T12:34:21;99164.88;;;11.60;82.94
9899;BME280;4988;49.238;6.698;2023-04-07T12:36:46;99165.19;;;11.54;83.82
9899;BME280;4988;49.238;6.698;2023-04-07T12:39:12;99163.47;;;11.53;82.88
9899;BME280;4988;49.238;6.698;2023-04-07T12:41:38;99164.78;;;11.44;81.81
9899;BME280;4988;49.238;6.698;2023-04-07T12:44:04;99166.50;;;11.45;82.29
9899;BME280;4988;49.238;6.698;2023-04-07T12:46:29;99171.72;;;11.48;81.84
9899;BME280;4988;49.238;6.698;2023-04-07T12:48:54;99162.81;;;11.30;81.11
9899;BME280;4988;49.238;6.698;2023-04-07T12:51:20;99174.81;;;11.39;80.78
9899;BME280;4988;49.238;6.698;2023-04-07T12:53:46;99171.13;;;11.41;77.87
9899;BME280;4988;49.238;6.698;2023-04-07T12:56:12;99165.50;;;11.48;77.71
9899;BME280;4988;49.238;6.698;2023-04-07T12:58:38;99167.94;;;11.52;77.59
9899;BME280;4988;49.238;6.698;2023-04-07T13:01:04;99171.41;;;11.54;77.48
9899;BME280;4988;49.238;6.698;2023-04-07T13:03:30;99170.38;;;11.57;80.95
9899;BME280;4988;49.238;6.698;2023-04-07T13:05:55;99163.22;;;11.57;82.33
9899;BME280;4988;49.238;6.698;2023-04-07T13:08:23;99164.66;;;11.47;82.74
9899;BME280;4988;49.238;6.698;2023-04-07T13:10:49;99160.34;;;11.62;80.09
9899;BME280;4988;49.238;6.698;2023-04-07T13:13:15;99163.41;;;11.72;78.65
9899;BME280;4988;49.238;6.698;2023-04-07T13:15:40;99170.16;;;11.62;78.92
9899;BME280;4988;49.238;6.698;2023-04-07T13:18:05;99164.94;;;11.41;79.75
9899;BME280;4988;49.238;6.698;2023-04-07T13:20:31;99161.69;;;11.53;79.07
9899;BME280;4988;49.238;6.698;2023-04-07T13:22:57;99159.63;;;11.58;79.40
9899;BME280;4988;49.238;6.698;2023-04-07T13:25:22;99155.31;;;11.73;79.54
9899;BME280;4988;49.238;6.698;2023-04-07T13:27:47;99155.41;;;11.89;75.94
9899;BME280;4988;49.238;6.698;2023-04-07T13:30:13;99162.56;;;12.06;76.04
9899;BME280;4988;49.238;6.698;2023-04-07T13:32:38;99152.13;;;12.19;75.62
9899;BME280;4988;49.238;6.698;2023-04-07T13:35:04;99155.75;;;12.18;77.17
9899;BME280;4988;49.238;6.698;2023-04-07T13:37:30;99152.91;;;12.21;74.91
9899;BME280;4988;49.238;6.698;2023-04-07T13:39:55;99152.66;;;12.26;74.87